sensor_id;sensor_type;location;lat;lon;timestamp;P1;durP1;ratioP1;P2;durP2;ratioP2
6177;SDS011;3122;48.208;11.174;2023-06-14T00:01:48;19.30;;;12.53;;
6177;SDS011;3122;48.208;11.174;2023-06-14T00:06:48;20.57;;;11.23;;
6177;SDS011;3122;48.208;11.174;2023-06-14T00:11:50;18.83;;;11.20;;
6177;SDS011;3122;48.208;11.174;2023-06-14T00:16:51;20.10;;;12.03;;
6177;SDS011;3122;48.208;11.174;2023-06-14T00:21:52;25.47;;;14.30;;
6177;SDS011;3122;48.208;11.174;2023-06-14T00:26:53;36.20;;;19.67;;
6177;SDS011;3122;48.208;11.174;2023-06-14T00:31:55;36.77;;;19.80;;
6177;SDS011;3122;48.208;11.174;2023-06-14T00:36:55;21.97;;;11.80;;
6177;SDS011;3122;48.208;11.174;2023-06-14T00:41:56;15.63;;;9.60;;
6177;SDS011;3122;48.208;11.174;2023-06-14T00:46:57;9.60;;;7.67;;
6177;SDS011;3122;48.208;11.174;2023-06-14T00:51:58;13.00;;;7.30;;
6177;SDS011;3122;48.208;11.174;2023-06-14T00:56:58;13.97;;;9.10;;
6177;SDS011;3122;48.208;11.174;2023-06-14T01:01:59;13.73;;;8.27;;
6177;SDS011;3122;48.208;11.174;2023-06-14T01:07:02;8.97;;;6.70;;
6177;SDS011;3122;48.208;11.174;2023-06-14T01:12:15;8.07;;;5.97;;
6177;SDS011;3122;48.208;11.174;2023-06-14T01:17:28;8.50;;;6.30;;
6177;SDS011;3122;48.208;11.174;2023-06-14T01:22:31;11.70;;;7.00;;
6177;SDS011;3122;48.208;11.174;2023-06-14T01:27:32;18.43;;;10.70;;
6177;SDS011;3122;48.208;11.174;2023-06-14T01:32:33;34.47;;;17.97;;
6177;SDS011;3122;48.208;11.174;2023-06-14T01:37:33;24.03;;;13.53;;
6177;SDS011;3122;48.208;11.174;2023-06-14T01:42:36;15.30;;;9.50;;
6177;SDS011;3122;48.208;11.174;2023-06-14T01:47:38;11.30;;;7.50;;
6177;SDS011;3122;48.208;11.174;2023-06-14T01:52:39;13.23;;;8.87;;
6177;SDS011;3122;48.208;11.174;2023-06-14T01:57:40;15.13;;;9.47;;
6177;SDS011;3122;48.208;11.174;2023-06-14T02:02:41;14.27;;;8.67;;
6177;SDS011;3122;48.208;11.174;2023-06-14T02:07:42;11.07;;;8.30;;
6177;SDS011;3122;48.208;11.174;2023-06-14T02:12:42;10.00;;;7.40;;
6177;SDS011;3122;48.208;11.174;2023-06-14T02:17:43;10.57;;;7.60;;
6177;SDS011;3122;48.208;11.174;2023-06-14T02:22:45;12.70;;;8.50;;
6177;SDS011;3122;48.208;11.174;2023-06-14T02:27:45;10.23;;;7.50;;
6177;SDS011;3122;48.208;11.174;2023-06-14T02:32:46;11.23;;;6.80;;
6177;SDS011;3122;48.208;11.174;2023-06-14T02:37:48;10.20;;;7.37;;
6177;SDS011;3122;48.208;11.174;2023-06-14T02:42:49;11.33;;;7.63;;
6177;SDS011;3122;48.208;11.174;2023-06-14T02:47:49;10.83;;;8.00;;
6177;SDS011;3122;48.208;11.174;2023-06-14T02:52:50;10.73;;;8.27;;
6177;SDS011;3122;48.208;11.174;2023-06-14T02:57:50;8.30;;;6.10;;
6177;SDS011;3122;48.208;11.174;2023-06-14T03:02:53;19.13;;;7.47;;
6177;SDS011;3122;48.208;11.174;2023-06-14T03:07:54;7.43;;;5.60;;
6177;SDS011;3122;48.208;11.174;2023-06-14T03:12:55;9.80;;;7.07;;
6177;SDS011;3122;48.208;11.174;2023-06-14T03:17:55;12.90;;;9.20;;
6177;SDS011;3122;48.208;11.174;2023-06-14T03:22:56;15.10;;;10.63;;
6177;SDS011;3122;48.208;11.174;2023-06-14T03:27:57;12.87;;;9.20;;
6177;SDS011;3122;48.208;11.174;2023-06-14T03:32:57;10.80;;;6.93;;
6177;SDS011;3122;48.208;11.174;2023-06-14T03:38:01;6.97;;;6.10;;
6177;SDS011;3122;48.208;11.174;2023-06-14T03:43:02;7.80;;;5.93;;
6177;SDS011;3122;48.208;11.174;2023-06-14T03:48:03;7.30;;;6.47;;
6177;SDS011;3122;48.208;11.174;2023-06-14T03:53:06;9.53;;;6.10;;
6177;SDS011;3122;48.208;11.174;2023-06-14T03:58:07;8.90;;;6.00;;
6177;SDS011;3122;48.208;11.174;2023-06-14T04:03:07;8.50;;;6.57;;
6177;SDS011;3122;48.208;11.174;2023-06-14T04:08:08;7.80;;;6.13;;
6177;SDS011;3122;48.208;11.174;2023-06-14T04:13:09;9.30;;;5.50;;
6177;SDS011;3122;48.208;11.174;2023-06-14T04:18:13;8.67;;;6.13;;
6177;SDS011;3122;48.208;11.174;2023-06-14T04:23:17;8.53;;;6.43;;
6177;SDS011;3122;48.208;11.174;2023-06-14T04:28:18;8.23;;;6.17;;
6177;SDS011;3122;48.208;11.174;2023-06-14T04:33:19;11.97;;;6.50;;
6177;SDS011;3122;48.208;11.174;2023-06-14T04:38:20;8.40;;;6.33;;
6177;SDS011;3122;48.208;11.174;2023-06-14T04:43:25;8.40;;;6.83;;
6177;SDS011;3122;48.208;11.174;2023-06-14T04:48:26;10.30;;;7.67;;
6177;SDS011;3122;48.208;11.174;2023-06-14T04:53:26;10.90;;;7.27;;
6177;SDS011;3122;48.208;11.174;2023-06-14T04:58:29;9.80;;;7.77;;
6177;SDS011;3122;48.208;11.174;2023-06-14T05:03:30;8.70;;;7.63;;
6177;SDS011;3122;48.208;11.174;2023-06-14T05:08:31;8.53;;;7.30;;
6177;SDS011;3122;48.208;11.174;2023-06-14T05:13:31;10.40;;;8.00;;
6177;SDS011;3122;48.208;11.174;2023-06-14T05:18:32;11.40;;;7.43;;
6177;SDS011;3122;48.208;11.174;2023-06-14T05:23:37;11.57;;;8.27;;
6177;SDS011;3122;48.208;11.174;2023-06-14T05:28:37;11.50;;;7.20;;
6177;SDS011;3122;48.208;11.174;2023-06-14T05:33:38;11.93;;;7.30;;
6177;SDS011;3122;48.208;11.174;2023-06-14T05:38:39;13.17;;;7.30;;
6177;SDS011;3122;48.208;11.174;2023-06-14T05:43:39;11.13;;;7.77;;
6177;SDS011;3122;48.208;11.174;2023-06-14T05:48:40;8.63;;;7.37;;
6177;SDS011;3122;48.208;11.174;2023-06-14T05:53:41;7.63;;;6.83;;
6177;SDS011;3122;48.208;11.174;2023-06-14T05:58:41;12.70;;;7.00;;
6177;SDS011;3122;48.208;11.174;2023-06-14T06:03:42;7.57;;;6.50;;
6177;SDS011;3122;48.208;11.174;2023-06-14T06:08:45;7.30;;;6.60;;
6177;SDS011;3122;48.208;11.174;2023-06-14T06:13:46;7.37;;;6.67;;
6177;SDS011;3122;48.208;11.174;2023-06-14T06:18:47;6.73;;;5.90;;
6177;SDS011;3122;48.208;11.174;2023-06-14T06:23:47;9.27;;;6.87;;
6177;SDS011;3122;48.208;11.174;2023-06-14T06:28:48;8.50;;;6.80;;
6177;SDS011;3122;48.208;11.174;2023-06-14T06:33:49;12.03;;;7.17;;
6177;SDS011;3122;48.208;11.174;2023-06-14T06:38:50;7.77;;;5.90;;
6177;SDS011;3122;48.208;11.174;2023-06-14T06:43:50;11.53;;;6.30;;
6177;SDS011;3122;48.208;11.174;2023-06-14T06:48:51;7.50;;;5.50;;
6177;SDS011;3122;48.208;11.174;2023-06-14T06:53:55;7.70;;;5.43;;
6177;SDS011;3122;48.208;11.174;2023-06-14T06:58:55;9.53;;;6.03;;
6177;SDS011;3122;48.208;11.174;2023-06-14T07:03:56;7.87;;;5.60;;
6177;SDS011;3122;48.208;11.174;2023-06-14T07:08:56;8.70;;;6.00;;
6177;SDS011;3122;48.208;11.174;2023-06-14T07:14:01;13.20;;;5.90;;
6177;SDS011;3122;48.208;11.174;2023-06-14T07:19:02;8.03;;;6.40;;
6177;SDS011;3122;48.208;11.174;2023-06-14T07:24:04;5.83;;;5.27;;
6177;SDS011;3122;48.208;11.174;2023-06-14T07:29:07;8.20;;;5.60;;
6177;SDS011;3122;48.208;11.174;2023-06-14T07:34:08;10.73;;;6.50;;
6177;SDS011;3122;48.208;11.174;2023-06-14T07:39:08;6.67;;;5.80;;
6177;SDS011;3122;48.208;11.174;2023-06-14T07:44:09;7.30;;;5.53;;
6177;SDS011;3122;48.208;11.174;2023-06-14T07:49:10;5.80;;;5.20;;
6177;SDS011;3122;48.208;11.174;2023-06-14T07:54:11;6.83;;;5.50;;
6177;SDS011;3122;48.208;11.174;2023-06-14T07:59:11;7.67;;;5.80;;
6177;SDS011;3122;48.208;11.174;2023-06-14T08:04:15;11.50;;;5.47;;
6177;SDS011;3122;48.208;11.174;2023-06-14T08:09:16;12.70;;;5.77;;
6177;SDS011;3122;48.208;11.174;2023-06-14T08:14:16;6.50;;;5.00;;
6177;SDS011;3122;48.208;11.174;2023-06-14T08:19:17;6.50;;;5.10;;
6177;SDS011;3122;48.208;11.174;2023-06-14T08:24:18;5.70;;;5.10;;
6177;SDS011;3122;48.208;11.174;2023-06-14T08:29:24;6.57;;;4.77;;
6177;SDS011;3122;48.208;11.174;2023-06-14T08:34:25;7.63;;;4.37;;
6177;SDS011;3122;48.208;11.174;2023-06-14T08:39:25;4.60;;;4.20;;
6177;SDS011;3122;48.208;11.174;2023-06-14T08:44:26;12.40;;;4.87;;
6177;SDS011;3122;48.208;11.174;2023-06-14T08:49:26;5.60;;;4.50;;
6177;SDS011;3122;48.208;11.174;2023-06-14T08:54:27;11.20;;;4.60;;
6177;SDS011;3122;48.208;11.174;2023-06-14T08:59:32;5.73;;;4.30;;
6177;SDS011;3122;48.208;11.174;2023-06-14T09:04:39;6.00;;;4.67;;
6177;SDS011;3122;48.208;11.174;2023-06-14T09:09:40;7.07;;;4.27;;
6177;SDS011;3122;48.208;11.174;2023-06-14T09:14:41;5.93;;;3.87;;
6177;SDS011;3122;48.208;11.174;2023-06-14T09:19:42;8.17;;;5.10;;
6177;SDS011;3122;48.208;11.174;2023-06-14T09:24:43;6.63;;;4.50;;
6177;SDS011;3122;48.208;11.174;2023-06-14T09:29:43;7.30;;;4.73;;
6177;SDS011;3122;48.208;11.174;2023-06-14T09:34:45;7.70;;;4.73;;
6177;SDS011;3122;48.208;11.174;2023-06-14T09:39:49;6.13;;;4.50;;
6177;SDS011;3122;48.208;11.174;2023-06-14T09:44:51;5.23;;;4.50;;
6177;SDS011;3122;48.208;11.174;2023-06-14T09:49:56;5.07;;;4.37;;
6177;SDS011;3122;48.208;11.174;2023-06-14T09:54:57;6.10;;;4.70;;
6177;SDS011;3122;48.208;11.174;2023-06-14T09:59:59;4.97;;;4.57;;
6177;SDS011;3122;48.208;11.174;2023-06-14T10:10:11;6.60;;;4.37;;
6177;SDS011;3122;48.208;11.174;2023-06-14T10:15:15;5.30;;;4.77;;
6177;SDS011;3122;48.208;11.174;2023-06-14T10:25:26;6.03;;;5.00;;
6177;SDS011;3122;48.208;11.174;2023-06-14T10:30:30;8.37;;;5.07;;
6177;SDS011;3122;48.208;11.174;2023-06-14T10:35:31;4.47;;;4.07;;
6177;SDS011;3122;48.208;11.174;2023-06-14T10:40:31;7.73;;;5.13;;
6177;SDS011;3122;48.208;11.174;2023-06-14T10:45:34;7.10;;;5.03;;
6177;SDS011;3122;48.208;11.174;2023-06-14T10:50:34;5.57;;;5.07;;
6177;SDS011;3122;48.208;11.174;2023-06-14T10:55:35;5.60;;;5.10;;
6177;SDS011;3122;48.208;11.174;2023-06-14T11:00:36;9.27;;;5.50;;
6177;SDS011;3122;48.208;11.174;2023-06-14T11:05:42;5.70;;;5.10;;
6177;SDS011;3122;48.208;11.174;2023-06-14T11:10:54;6.00;;;5.10;;
6177;SDS011;3122;48.208;11.174;2023-06-14T11:15:56;7.07;;;5.07;;
6177;SDS011;3122;48.208;11.174;2023-06-14T11:20:58;5.00;;;4.50;;
6177;SDS011;3122;48.208;11.174;2023-06-14T11:25:58;6.80;;;5.00;;
6177;SDS011;3122;48.208;11.174;2023-06-14T11:30:59;5.73;;;4.53;;
6177;SDS011;3122;48.208;11.174;2023-06-14T11:36:04;10.40;;;5.10;;
6177;SDS011;3122;48.208;11.174;2023-06-14T11:41:08;9.33;;;5.50;;
6177;SDS011;3122;48.208;11.174;2023-06-14T11:46:12;5.70;;;5.13;;
6177;SDS011;3122;48.208;11.174;2023-06-14T11:51:18;6.33;;;5.00;;
6177;SDS011;3122;48.208;11.174;2023-06-14T11:56:19;6.43;;;5.40;;
6177;SDS011;3122;48.208;11.174;2023-06-14T12:01:19;8.80;;;5.37;;
6177;SDS011;3122;48.208;11.174;2023-06-14T12:06:26;5.77;;;4.87;;
6177;SDS011;3122;48.208;11.174;2023-06-14T12:11:32;7.37;;;5.00;;
6177;SDS011;3122;48.208;11.174;2023-06-14T12:16:34;7.00;;;4.87;;
6177;SDS011;3122;48.208;11.174;2023-06-14T12:21:38;8.03;;;5.10;;
6177;SDS011;3122;48.208;11.174;2023-06-14T12:26:40;6.03;;;5.43;;
6177;SDS011;3122;48.208;11.174;2023-06-14T12:31:41;6.00;;;4.73;;
6177;SDS011;3122;48.208;11.174;2023-06-14T12:36:42;7.37;;;5.50;;
6177;SDS011;3122;48.208;11.174;2023-06-14T12:41:44;4.90;;;4.40;;
6177;SDS011;3122;48.208;11.174;2023-06-14T12:46:45;6.73;;;5.10;;
6177;SDS011;3122;48.208;11.174;2023-06-14T12:51:46;9.03;;;5.40;;
6177;SDS011;3122;48.208;11.174;2023-06-14T12:56:47;4.87;;;4.30;;
6177;SDS011;3122;48.208;11.174;2023-06-14T13:01:48;6.57;;;5.20;;
6177;SDS011;3122;48.208;11.174;2023-06-14T13:06:50;7.33;;;5.03;;
6177;SDS011;3122;48.208;11.174;2023-06-14T13:11:50;6.13;;;4.80;;
6177;SDS011;3122;48.208;11.174;2023-06-14T13:16:51;5.40;;;4.90;;
6177;SDS011;3122;48.208;11.174;2023-06-14T13:21:52;5.93;;;5.13;;
6177;SDS011;3122;48.208;11.174;2023-06-14T13:26:52;5.70;;;5.10;;
6177;SDS011;3122;48.208;11.174;2023-06-14T13:31:53;6.03;;;5.13;;
6177;SDS011;3122;48.208;11.174;2023-06-14T13:36:54;6.03;;;5.43;;
6177;SDS011;3122;48.208;11.174;2023-06-14T13:41:55;5.60;;;5.10;;
6177;SDS011;3122;48.208;11.174;2023-06-14T13:46:55;6.70;;;5.20;;
6177;SDS011;3122;48.208;11.174;2023-06-14T13:51:56;7.20;;;5.17;;
6177;SDS011;3122;48.208;11.174;2023-06-14T13:56:57;5.63;;;5.10;;
6177;SDS011;3122;48.208;11.174;2023-06-14T14:01:58;5.60;;;5.00;;
6177;SDS011;3122;48.208;11.174;2023-06-14T14:06:59;5.83;;;5.00;;
6177;SDS011;3122;48.208;11.174;2023-06-14T14:11:59;6.93;;;5.60;;
6177;SDS011;3122;48.208;11.174;2023-06-14T14:17:00;5.50;;;5.00;;
6177;SDS011;3122;48.208;11.174;2023-06-14T14:22:02;8.67;;;5.00;;
6177;SDS011;3122;48.208;11.174;2023-06-14T14:27:03;6.23;;;4.83;;
6177;SDS011;3122;48.208;11.174;2023-06-14T14:32:04;5.17;;;4.77;;
6177;SDS011;3122;48.208;11.174;2023-06-14T14:37:05;9.50;;;4.50;;
6177;SDS011;3122;48.208;11.174;2023-06-14T14:42:06;5.17;;;4.70;;
6177;SDS011;3122;48.208;11.174;2023-06-14T14:47:07;5.70;;;5.20;;
6177;SDS011;3122;48.208;11.174;2023-06-14T14:52:08;6.30;;;5.17;;
6177;SDS011;3122;48.208;11.174;2023-06-14T14:57:09;6.10;;;5.50;;
6177;SDS011;3122;48.208;11.174;2023-06-14T15:02:10;6.80;;;5.47;;
6177;SDS011;3122;48.208;11.174;2023-06-14T15:07:11;5.80;;;5.30;;
6177;SDS011;3122;48.208;11.174;2023-06-14T15:12:11;8.23;;;5.70;;
6177;SDS011;3122;48.208;11.174;2023-06-14T15:17:12;5.40;;;4.90;;
6177;SDS011;3122;48.208;11.174;2023-06-14T15:22:13;5.17;;;4.67;;
6177;SDS011;3122;48.208;11.174;2023-06-14T15:27:14;5.03;;;4.53;;
6177;SDS011;3122;48.208;11.174;2023-06-14T15:32:15;5.50;;;4.47;;
6177;SDS011;3122;48.208;11.174;2023-06-14T15:37:16;5.23;;;4.73;;
6177;SDS011;3122;48.208;11.174;2023-06-14T15:42:16;7.00;;;4.93;;
6177;SDS011;3122;48.208;11.174;2023-06-14T15:47:17;7.37;;;4.60;;
6177;SDS011;3122;48.208;11.174;2023-06-14T15:52:17;4.53;;;4.10;;
6177;SDS011;3122;48.208;11.174;2023-06-14T15:57:18;4.80;;;4.40;;
6177;SDS011;3122;48.208;11.174;2023-06-14T16:02:18;6.13;;;4.83;;
6177;SDS011;3122;48.208;11.174;2023-06-14T16:07:19;7.33;;;5.43;;
6177;SDS011;3122;48.208;11.174;2023-06-14T16:12:19;6.00;;;4.90;;
6177;SDS011;3122;48.208;11.174;2023-06-14T16:17:21;5.37;;;4.93;;
6177;SDS011;3122;48.208;11.174;2023-06-14T16:22:22;5.77;;;5.27;;
6177;SDS011;3122;48.208;11.174;2023-06-14T16:27:22;5.17;;;4.77;;
6177;SDS011;3122;48.208;11.174;2023-06-14T16:32:23;5.67;;;5.17;;
6177;SDS011;3122;48.208;11.174;2023-06-14T16:37:24;5.37;;;4.87;;
6177;SDS011;3122;48.208;11.174;2023-06-14T16:42:24;5.20;;;4.70;;
6177;SDS011;3122;48.208;11.174;2023-06-14T16:47:25;8.30;;;4.80;;
6177;SDS011;3122;48.208;11.174;2023-06-14T16:52:25;5.87;;;4.60;;
6177;SDS011;3122;48.208;11.174;2023-06-14T16:57:27;5.67;;;4.67;;
6177;SDS011;3122;48.208;11.174;2023-06-14T17:02:27;5.27;;;4.77;;
6177;SDS011;3122;48.208;11.174;2023-06-14T17:07:28;14.40;;;5.90;;
6177;SDS011;3122;48.208;11.174;2023-06-14T17:12:28;5.97;;;5.00;;
6177;SDS011;3122;48.208;11.174;2023-06-14T17:17:29;5.77;;;5.20;;
6177;SDS011;3122;48.208;11.174;2023-06-14T17:22:29;6.57;;;5.10;;
6177;SDS011;3122;48.208;11.174;2023-06-14T17:27:30;7.27;;;5.80;;
6177;SDS011;3122;48.208;11.174;2023-06-14T17:32:31;8.00;;;5.40;;
6177;SDS011;3122;48.208;11.174;2023-06-14T17:37:31;6.00;;;5.10;;
6177;SDS011;3122;48.208;11.174;2023-06-14T17:42:32;9.60;;;5.53;;
6177;SDS011;3122;48.208;11.174;2023-06-14T17:47:33;6.63;;;5.63;;
6177;SDS011;3122;48.208;11.174;2023-06-14T17:52:33;8.43;;;6.10;;
6177;SDS011;3122;48.208;11.174;2023-06-14T17:57:34;6.20;;;5.50;;
6177;SDS011;3122;48.208;11.174;2023-06-14T18:02:35;11.40;;;6.20;;
6177;SDS011;3122;48.208;11.174;2023-06-14T18:07:35;6.37;;;5.77;;
6177;SDS011;3122;48.208;11.174;2023-06-14T18:12:38;6.67;;;5.87;;
6177;SDS011;3122;48.208;11.174;2023-06-14T18:17:38;7.30;;;5.80;;
6177;SDS011;3122;48.208;11.174;2023-06-14T18:22:39;9.20;;;6.17;;
6177;SDS011;3122;48.208;11.174;2023-06-14T18:27:39;21.30;;;6.40;;
6177;SDS011;3122;48.208;11.174;2023-06-14T18:32:40;15.60;;;6.50;;
6177;SDS011;3122;48.208;11.174;2023-06-14T18:37:43;7.50;;;5.40;;
6177;SDS011;3122;48.208;11.174;2023-06-14T18:42:44;5.73;;;5.23;;
6177;SDS011;3122;48.208;11.174;2023-06-14T18:47:45;6.17;;;4.97;;
6177;SDS011;3122;48.208;11.174;2023-06-14T18:52:45;6.47;;;5.10;;
6177;SDS011;3122;48.208;11.174;2023-06-14T18:57:46;8.63;;;5.37;;
6177;SDS011;3122;48.208;11.174;2023-06-14T19:02:47;9.03;;;5.67;;
6177;SDS011;3122;48.208;11.174;2023-06-14T19:07:47;6.60;;;4.83;;
6177;SDS011;3122;48.208;11.174;2023-06-14T19:12:48;5.70;;;5.20;;
6177;SDS011;3122;48.208;11.174;2023-06-14T19:18:01;6.23;;;5.53;;
6177;SDS011;3122;48.208;11.174;2023-06-14T19:23:04;6.23;;;5.53;;
6177;SDS011;3122;48.208;11.174;2023-06-14T19:28:05;6.80;;;5.40;;
6177;SDS011;3122;48.208;11.174;2023-06-14T19:33:05;14.60;;;5.97;;
6177;SDS011;3122;48.208;11.174;2023-06-14T19:38:06;9.43;;;5.97;;
6177;SDS011;3122;48.208;11.174;2023-06-14T19:43:07;15.13;;;6.20;;
6177;SDS011;3122;48.208;11.174;2023-06-14T19:48:07;12.13;;;5.30;;
6177;SDS011;3122;48.208;11.174;2023-06-14T19:53:08;10.33;;;6.03;;
6177;SDS011;3122;48.208;11.174;2023-06-14T19:58:09;10.77;;;6.20;;
6177;SDS011;3122;48.208;11.174;2023-06-14T20:03:09;6.67;;;5.77;;
6177;SDS011;3122;48.208;11.174;2023-06-14T20:08:11;11.83;;;6.80;;
6177;SDS011;3122;48.208;11.174;2023-06-14T20:13:13;19.33;;;6.50;;
6177;SDS011;3122;48.208;11.174;2023-06-14T20:18:13;9.27;;;6.37;;
6177;SDS011;3122;48.208;11.174;2023-06-14T20:23:14;10.27;;;6.53;;
6177;SDS011;3122;48.208;11.174;2023-06-14T20:28:14;7.37;;;6.67;;
6177;SDS011;3122;48.208;11.174;2023-06-14T20:33:15;7.07;;;6.13;;
6177;SDS011;3122;48.208;11.174;2023-06-14T20:38:16;7.70;;;5.80;;
6177;SDS011;3122;48.208;11.174;2023-06-14T20:43:17;7.70;;;6.53;;
6177;SDS011;3122;48.208;11.174;2023-06-14T20:48:18;8.50;;;6.70;;
6177;SDS011;3122;48.208;11.174;2023-06-14T20:53:19;9.60;;;6.67;;
6177;SDS011;3122;48.208;11.174;2023-06-14T20:58:20;8.20;;;6.37;;
6177;SDS011;3122;48.208;11.174;2023-06-14T21:03:20;11.23;;;6.57;;
6177;SDS011;3122;48.208;11.174;2023-06-14T21:08:21;7.20;;;6.50;;
6177;SDS011;3122;48.208;11.174;2023-06-14T21:13:22;9.63;;;6.50;;
6177;SDS011;3122;48.208;11.174;2023-06-14T21:18:23;9.70;;;6.47;;
6177;SDS011;3122;48.208;11.174;2023-06-14T21:23:24;8.30;;;6.30;;
6177;SDS011;3122;48.208;11.174;2023-06-14T21:28:24;8.30;;;6.40;;
6177;SDS011;3122;48.208;11.174;2023-06-14T21:33:25;7.87;;;6.60;;
6177;SDS011;3122;48.208;11.174;2023-06-14T21:38:25;8.43;;;6.30;;
6177;SDS011;3122;48.208;11.174;2023-06-14T21:43:26;12.30;;;6.37;;
6177;SDS011;3122;48.208;11.174;2023-06-14T21:48:26;8.00;;;5.93;;
6177;SDS011;3122;48.208;11.174;2023-06-14T21:53:27;8.90;;;6.60;;
6177;SDS011;3122;48.208;11.174;2023-06-14T21:58:30;11.23;;;6.47;;
6177;SDS011;3122;48.208;11.174;2023-06-14T22:03:31;6.63;;;5.93;;
6177;SDS011;3122;48.208;11.174;2023-06-14T22:08:32;10.03;;;6.70;;
6177;SDS011;3122;48.208;11.174;2023-06-14T22:13:34;11.83;;;6.57;;
6177;SDS011;3122;48.208;11.174;2023-06-14T22:18:38;7.53;;;5.70;;
6177;SDS011;3122;48.208;11.174;2023-06-14T22:23:40;8.00;;;6.53;;
6177;SDS011;3122;48.208;11.174;2023-06-14T22:28:43;6.73;;;6.07;;
6177;SDS011;3122;48.208;11.174;2023-06-14T22:33:45;7.10;;;6.13;;
6177;SDS011;3122;48.208;11.174;2023-06-14T22:38:46;8.70;;;6.83;;
6177;SDS011;3122;48.208;11.174;2023-06-14T22:43:47;8.17;;;6.00;;
6177;SDS011;3122;48.208;11.174;2023-06-14T22:48:47;11.83;;;6.47;;
6177;SDS011;3122;48.208;11.174;2023-06-14T22:53:52;9.93;;;6.57;;
6177;SDS011;3122;48.208;11.174;2023-06-14T22:58:53;10.33;;;6.63;;
6177;SDS011;3122;48.208;11.174;2023-06-14T23:03:53;9.90;;;6.37;;
6177;SDS011;3122;48.208;11.174;2023-06-14T23:08:55;8.77;;;6.20;;
6177;SDS011;3122;48.208;11.174;2023-06-14T23:13:59;10.27;;;6.40;;
6177;SDS011;3122;48.208;11.174;2023-06-14T23:19:00;9.63;;;7.07;;
6177;SDS011;3122;48.208;11.174;2023-06-14T23:24:02;6.90;;;6.20;;
6177;SDS011;3122;48.208;11.174;2023-06-14T23:29:02;7.87;;;6.30;;
6177;SDS011;3122;48.208;11.174;2023-06-14T23:34:04;9.43;;;6.70;;
6177;SDS011;3122;48.208;11.174;2023-06-14T23:39:05;7.60;;;6.80;;
6177;SDS011;3122;48.208;11.174;2023-06-14T23:44:06;7.00;;;6.40;;
6177;SDS011;3122;48.208;11.174;2023-06-14T23:49:06;8.20;;;7.00;;
6177;SDS011;3122;48.208;11.174;2023-06-14T23:54:08;6.97;;;6.27;;
6177;SDS011;3122;48.208;11.174;2023-06-14T23:59:12;11.53;;;7.60;;
